Terminal Aerodrome Forecast
Issued by NWS Brownsville, TX

Home | Current Version | Previous Version | Text Only | Print | Product List | Glossary On
Versions: 1 2 3 4 5 6 7 8 9 10 11 12 13 14 15 16 17 18 19 20 21 22 23 24 25 26 27
000
FTUS44 KBRO 020200 AAA
TAFHRL
TAF AMD
KHRL 020212Z 0202/0224 13006KT P6SM SKC
     FM020700 16008KT 5SM BR BKN022
      TEMPO 0210/0214 1SM BR BKN012
     FM021500 16013KT P6SM BKN028
     FM021700 16015KT P6SM SCT035=

USA.gov is the U.S. government's official web portal to all federal, state and local government web resources and services.